Time;durP1;ratioP1;P1;durP2;ratioP2;P2;SDS_P1;SDS_P2;PMS_P1;PMS_P2;Temp;Humidity;BMP_temperature;BMP_pressure;BME280_temperature;BME280_humidity;BME280_pressure;Samples;Min_cycle;Max_cycle;Signal;HPM_P1;HPM_P2
2022/05/26 00:01:40;;;;;;;2.83;1.77;;;23.90;41.30;;;;;;4985754;28;20203;-45
2022/05/26 00:04:06;;;;;;;3.10;1.90;;;23.90;41.30;;;;;;4985106;28;20194;-46
2022/05/26 00:06:32;;;;;;;2.43;1.73;;;23.60;41.20;;;;;;4988946;28;20838;-45
2022/05/26 00:08:58;;;;;;;2.80;1.50;;;23.60;41.70;;;;;;4986682;28;20431;-46
2022/05/26 00:11:28;;;;;;;1.70;1.60;;;23.70;41.60;;;;;;4986426;28;20199;-47
2022/05/26 00:13:55;;;;;;;2.00;1.70;;;23.70;41.40;;;;;;4986422;28;20456;-48
2022/05/26 00:16:21;;;;;;;1.57;1.47;;;23.70;41.40;;;;;;4984058;28;20445;-46
2022/05/26 00:18:47;;;;;;;1.60;1.50;;;23.70;41.40;;;;;;4988874;28;20457;-46
2022/05/26 00:21:13;;;;;;;1.60;1.50;;;23.80;41.40;;;;;;4988163;28;20222;-48
2022/05/26 00:23:39;;;;;;;1.90;1.60;;;23.70;41.20;;;;;;4989067;28;20484;-49
2022/05/26 00:26:04;;;;;;;2.50;1.70;;;23.70;41.40;;;;;;4988634;28;20500;-46
2022/05/26 00:28:31;;;;;;;2.40;1.53;;;23.80;42.00;;;;;;4989919;28;20195;-44
2022/05/26 00:30:57;;;;;;;1.60;1.50;;;23.80;41.30;;;;;;4985294;28;20572;-46
2022/05/26 00:33:23;;;;;;;2.20;1.67;;;23.80;41.30;;;;;;4983988;28;20551;-47
2022/05/26 00:35:49;;;;;;;2.00;1.80;;;23.80;41.50;;;;;;4983983;28;20453;-45
2022/05/26 00:38:16;;;;;;;1.90;1.17;;;23.70;41.60;;;;;;4981712;28;22562;-44
2022/05/26 00:40:43;;;;;;;2.10;1.87;;;23.80;41.80;;;;;;4988358;28;20489;-45
2022/05/26 00:43:10;;;;;;;6.23;1.47;;;23.80;42.10;;;;;;4983356;28;20442;-45
2022/05/26 00:45:40;;;;;;;3.87;1.50;;;23.80;42.10;;;;;;4987091;28;20503;-44
2022/05/26 00:48:11;;;;;;;1.70;1.60;;;23.80;41.80;;;;;;4985199;28;20442;-47
2022/05/26 00:51:01;;;;;;;1.70;1.60;;;23.80;41.40;;;;;;4988662;28;20442;-49
2022/05/26 00:53:33;;;;;;;4.03;1.43;;;23.80;41.40;;;;;;4986915;28;20489;-45
2022/05/26 00:56:10;;;;;;;2.50;2.03;;;23.80;41.40;;;;;;4985917;28;20489;-45
2022/05/26 00:58:39;;;;;;;1.47;1.33;;;23.80;41.50;;;;;;4978478;28;20869;-47
2022/05/26 01:01:05;;;;;;;1.93;1.50;;;23.80;41.50;;;;;;5001242;28;21091;-46
2022/05/26 01:03:33;;;;;;;1.70;1.60;;;23.80;41.50;;;;;;4987839;28;20526;-48
2022/05/26 01:06:07;;;;;;;1.90;1.40;;;23.80;41.60;;;;;;4981226;28;20198;-45
2022/05/26 01:08:39;;;;;;;1.67;1.57;;;23.80;41.50;;;;;;4978174;28;20847;-45
2022/05/26 01:11:05;;;;;;;4.63;1.30;;;23.70;41.40;;;;;;4982857;28;20449;-43
2022/05/26 01:13:32;;;;;;;1.70;1.60;;;23.70;41.20;;;;;;4987623;28;21307;-46
2022/05/26 01:16:08;;;;;;;1.90;1.13;;;23.70;40.60;;;;;;4988356;28;21296;-44
2022/05/26 01:18:46;;;;;;;2.10;1.83;;;23.70;40.10;;;;;;4988424;28;20440;-44
2022/05/26 01:21:31;;;;;;;2.67;1.80;;;23.50;40.20;;;;;;4980093;28;20503;-46
2022/05/26 01:24:08;;;;;;;1.60;1.43;;;23.40;40.40;;;;;;4988821;28;20944;-43
2022/05/26 01:26:51;;;;;;;2.27;1.50;;;23.30;40.60;;;;;;4987784;28;20449;-46
2022/05/26 01:29:51;;;;;;;3.90;1.60;;;23.20;40.90;;;;;;4991665;28;20467;-47
2022/05/26 01:32:31;;;;;;;2.03;1.30;;;23.10;41.60;;;;;;4987515;28;20921;-47
2022/05/26 01:35:18;;;;;;;2.00;1.47;;;23.00;41.80;;;;;;4987063;28;20511;-44
2022/05/26 01:37:53;;;;;;;2.73;1.33;;;22.80;41.90;;;;;;4981338;28;20931;-44
2022/05/26 01:40:33;;;;;;;1.90;1.63;;;22.70;42.10;;;;;;4983579;28;20915;-44
2022/05/26 01:43:02;;;;;;;3.87;1.77;;;22.60;42.10;;;;;;4983767;28;20480;-45
2022/05/26 01:45:51;;;;;;;1.50;1.40;;;22.50;42.30;;;;;;4982996;28;21371;-47
2022/05/26 01:48:22;;;;;;;1.73;1.60;;;22.50;42.60;;;;;;4988235;28;20442;-44
2022/05/26 01:51:05;;;;;;;1.57;1.47;;;22.40;42.80;;;;;;4987811;28;20461;-46
2022/05/26 01:53:37;;;;;;;3.97;1.50;;;22.40;43.60;;;;;;4984129;28;20458;-45
2022/05/26 01:56:16;;;;;;;1.93;1.40;;;22.40;43.50;;;;;;4983379;28;20872;-44
2022/05/26 01:59:14;;;;;;;1.90;1.80;;;22.40;43.30;;;;;;4985653;28;20445;-44
2022/05/26 02:01:45;;;;;;;1.97;1.43;;;22.40;43.10;;;;;;4979217;28;20462;-46
2022/05/26 02:04:25;;;;;;;1.73;1.33;;;22.40;43.60;;;;;;4985927;28;20453;-45
2022/05/26 02:07:01;;;;;;;1.80;1.43;;;22.30;42.90;;;;;;4989181;28;20453;-44
2022/05/26 02:09:38;;;;;;;3.80;1.30;;;22.30;43.20;;;;;;4988584;28;20545;-44
2022/05/26 02:12:09;;;;;;;1.40;1.30;;;22.20;44.30;;;;;;4986775;28;20445;-45
2022/05/26 02:14:47;;;;;;;2.30;1.53;;;22.20;44.00;;;;;;4989289;28;20442;-44
2022/05/26 02:17:30;;;;;;;1.80;1.50;;;22.30;44.00;;;;;;4989234;28;20572;-44
2022/05/26 02:20:08;;;;;;;1.77;1.63;;;22.30;43.80;;;;;;4989556;28;20504;-44
2022/05/26 02:22:43;;;;;;;2.67;1.93;;;22.20;43.60;;;;;;4988007;28;20449;-44
2022/05/26 02:25:16;;;;;;;3.30;2.10;;;22.20;43.60;;;;;;4987499;28;20449;-45
2022/05/26 02:27:42;;;;;;;2.73;1.60;;;22.20;43.60;;;;;;4986744;28;20449;-44
2022/05/26 02:30:08;;;;;;;2.50;1.67;;;22.10;44.20;;;;;;4987886;28;20449;-47
2022/05/26 02:32:38;;;;;;;2.20;1.57;;;22.10;44.20;;;;;;4988818;28;20968;-44
2022/05/26 02:35:17;;;;;;;2.27;1.80;;;22.10;44.30;;;;;;4989789;28;20453;-44
2022/05/26 02:37:47;;;;;;;1.60;1.50;;;22.20;44.10;;;;;;4987792;28;20449;-47
2022/05/26 02:40:14;;;;;;;2.13;1.70;;;22.20;43.70;;;;;;4989715;28;20489;-44
2022/05/26 02:42:51;;;;;;;1.67;1.57;;;22.20;44.10;;;;;;4984705;28;20443;-44
2022/05/26 02:45:26;;;;;;;2.60;1.60;;;22.20;44.20;;;;;;4986716;28;20444;-44
2022/05/26 02:48:16;;;;;;;1.43;1.30;;;22.20;44.00;;;;;;4985190;28;20504;-45
2022/05/26 02:51:05;;;;;;;1.60;1.50;;;22.20;43.80;;;;;;4982219;28;20450;-45
2022/05/26 02:53:52;;;;;;;1.57;1.47;;;22.20;43.60;;;;;;4988135;28;20445;-45
2022/05/26 02:56:17;;;;;;;2.20;1.50;;;22.20;43.50;;;;;;4986940;28;20949;-45
2022/05/26 02:59:01;;;;;;;1.60;1.50;;;22.20;44.00;;;;;;4989376;28;20519;-44
2022/05/26 03:01:33;;;;;;;1.60;1.40;;;22.10;43.80;;;;;;4987665;28;20210;-44
2022/05/26 03:04:22;;;;;;;2.50;1.30;;;22.10;43.90;;;;;;4987334;28;20454;-45
2022/05/26 03:06:55;;;;;;;2.03;1.43;;;22.10;44.00;;;;;;4981474;28;20449;-46
2022/05/26 03:09:22;;;;;;;2.03;1.37;;;22.10;44.00;;;;;;4982492;28;20446;-45
2022/05/26 03:11:54;;;;;;;2.83;1.50;;;22.00;44.00;;;;;;4987371;28;20441;-45
2022/05/26 03:14:20;;;;;;;1.60;1.50;;;21.90;44.20;;;;;;4985111;28;21019;-45
2022/05/26 03:16:47;;;;;;;3.80;1.30;;;21.90;45.00;;;;;;4982147;28;20454;-44
2022/05/26 03:19:12;;;;;;;1.43;1.13;;;21.90;44.50;;;;;;4983956;28;20441;-43
2022/05/26 03:21:39;;;;;;;1.70;1.60;;;21.90;44.60;;;;;;4989187;28;20449;-44
2022/05/26 03:24:06;;;;;;;2.17;1.27;;;21.90;44.40;;;;;;4980405;28;20186;-44
2022/05/26 03:26:31;;;;;;;3.67;1.60;;;22.00;44.90;;;;;;4982783;28;20450;-47
2022/05/26 03:28:58;;;;;;;1.70;1.60;;;22.00;44.60;;;;;;4986598;28;20481;-46
2022/05/26 03:31:23;;;;;;;1.63;1.53;;;22.00;44.60;;;;;;4980028;28;20199;-45
2022/05/26 03:42:06;;;;;;;2.90;1.53;;;22.10;44.40;;;;;;4985887;28;20453;-46
2022/05/26 03:44:34;;;;;;;1.43;1.10;;;22.10;43.70;;;;;;4977919;28;20448;-45
2022/05/26 03:47:00;;;;;;;1.40;1.30;;;22.00;43.70;;;;;;4984095;28;20533;-45
2022/05/26 03:49:25;;;;;;;1.53;1.30;;;22.00;43.70;;;;;;4981599;28;20445;-44
2022/05/26 03:51:51;;;;;;;1.67;1.57;;;21.90;44.20;;;;;;4981512;28;20446;-47
2022/05/26 03:54:17;;;;;;;1.53;1.27;;;21.90;44.70;;;;;;4985949;28;20230;-46
2022/05/26 03:56:42;;;;;;;1.20;1.07;;;21.90;44.20;;;;;;4984458;28;20194;-44
2022/05/26 03:59:08;;;;;;;3.13;1.80;;;21.90;44.30;;;;;;4978133;28;20204;-44
2022/05/26 04:01:34;;;;;;;6.03;2.80;;;21.90;43.90;;;;;;4979771;28;20199;-43
2022/05/26 04:03:59;;;;;;;1.63;1.53;;;21.90;44.20;;;;;;4983774;28;20202;-44
2022/05/26 04:06:28;;;;;;;4.07;1.40;;;21.80;44.40;;;;;;4981707;28;20597;-44
2022/05/26 04:08:54;;;;;;;2.37;1.37;;;21.80;44.30;;;;;;4983032;28;20217;-45
2022/05/26 04:11:23;;;;;;;4.63;1.30;;;21.80;44.40;;;;;;4984605;28;20450;-44
2022/05/26 04:13:53;;;;;;;1.90;1.77;;;21.90;44.90;;;;;;4983751;28;20509;-44
2022/05/26 04:16:22;;;;;;;5.53;1.40;;;21.90;44.50;;;;;;4984029;28;20457;-45
2022/05/26 04:18:50;;;;;;;1.27;1.17;;;21.90;44.20;;;;;;4985511;28;20467;-45
2022/05/26 04:21:15;;;;;;;2.40;1.50;;;21.90;44.80;;;;;;4979430;28;20884;-44
2022/05/26 04:23:41;;;;;;;5.00;1.33;;;22.00;44.90;;;;;;4985715;28;21040;-46
2022/05/26 04:26:09;;;;;;;2.50;1.40;;;22.00;45.10;;;;;;4983818;28;20967;-44
2022/05/26 04:28:35;;;;;;;2.90;1.63;;;22.10;45.00;;;;;;4987325;28;20637;-44
2022/05/26 04:31:01;;;;;;;1.57;1.47;;;22.10;44.80;;;;;;4988650;28;20444;-45
2022/05/26 04:33:27;;;;;;;1.53;1.43;;;22.20;44.60;;;;;;4990143;28;20806;-43
2022/05/26 04:35:53;;;;;;;1.37;1.27;;;22.20;44.60;;;;;;4988116;28;20917;-44
2022/05/26 04:38:19;;;;;;;1.50;1.40;;;22.20;44.50;;;;;;4986743;28;20491;-43
2022/05/26 04:40:45;;;;;;;1.40;1.30;;;22.20;44.60;;;;;;4990402;28;20478;-44
2022/05/26 04:43:11;;;;;;;1.47;1.37;;;22.30;44.60;;;;;;4988412;28;20202;-48
2022/05/26 04:45:37;;;;;;;2.60;1.40;;;22.30;44.40;;;;;;4987971;28;20662;-44
2022/05/26 04:48:04;;;;;;;1.33;1.20;;;22.40;44.50;;;;;;5003132;28;20445;-44
2022/05/26 04:50:30;;;;;;;1.87;1.23;;;22.40;44.40;;;;;;4984529;28;20441;-44
2022/05/26 04:52:56;;;;;;;1.20;1.10;;;22.40;44.40;;;;;;4988787;28;20950;-44
2022/05/26 04:55:21;;;;;;;4.30;1.20;;;22.50;44.50;;;;;;4985745;28;20288;-43
2022/05/26 04:57:48;;;;;;;1.50;1.40;;;22.50;44.50;;;;;;4990402;28;20214;-44
2022/05/26 05:00:16;;;;;;;2.80;1.57;;;22.60;44.40;;;;;;4986472;28;20656;-44
2022/05/26 05:02:42;;;;;;;3.27;1.50;;;22.60;44.20;;;;;;4986172;28;20457;-44
2022/05/26 05:05:10;;;;;;;2.40;1.40;;;22.60;44.50;;;;;;4988519;28;20485;-44
2022/05/26 05:07:36;;;;;;;1.40;1.30;;;22.70;44.50;;;;;;4988121;28;20459;-43
2022/05/26 05:10:02;;;;;;;3.70;1.40;;;22.80;44.30;;;;;;4980638;28;20467;-44
2022/05/26 05:12:29;;;;;;;2.20;1.30;;;22.90;43.90;;;;;;4984562;28;20206;-46
2022/05/26 05:14:56;;;;;;;6.53;1.80;;;22.90;43.40;;;;;;4990132;28;20557;-44
2022/05/26 05:17:24;;;;;;;2.37;1.10;;;22.90;44.50;;;;;;4985574;28;20446;-45
2022/05/26 05:19:50;;;;;;;1.33;1.23;;;22.90;44.20;;;;;;4989591;28;20503;-44
2022/05/26 05:22:21;;;;;;;1.67;1.23;;;22.90;43.30;;;;;;4984479;28;20866;-44
2022/05/26 05:24:58;;;;;;;4.80;1.40;;;22.90;43.00;;;;;;4981623;28;20453;-46
2022/05/26 05:27:26;;;;;;;1.97;1.50;;;23.00;43.00;;;;;;4985049;28;21121;-45
2022/05/26 05:29:56;;;;;;;1.43;1.00;;;23.00;42.80;;;;;;4990141;28;20461;-44
2022/05/26 05:32:29;;;;;;;5.07;1.20;;;22.90;42.70;;;;;;4981000;28;20496;-45
2022/05/26 05:35:02;;;;;;;1.53;1.20;;;22.90;42.60;;;;;;4986169;28;20449;-43
2022/05/26 05:37:31;;;;;;;2.93;1.50;;;22.90;42.90;;;;;;4982617;28;20454;-44
2022/05/26 05:39:56;;;;;;;1.93;1.47;;;22.80;42.90;;;;;;4984480;28;20493;-44
2022/05/26 05:42:23;;;;;;;2.23;1.00;;;22.60;42.60;;;;;;4985020;28;20446;-45
2022/05/26 05:44:49;;;;;;;1.23;1.00;;;22.40;43.30;;;;;;4989532;28;20286;-43
2022/05/26 05:47:14;;;;;;;1.07;1.07;;;22.00;43.50;;;;;;4989709;28;20537;-43
2022/05/26 05:49:40;;;;;;;3.50;1.10;;;22.00;43.70;;;;;;4991211;28;20230;-44
2022/05/26 05:52:12;;;;;;;1.30;1.07;;;22.10;44.10;;;;;;4989541;28;20203;-43
2022/05/26 05:54:38;;;;;;;2.30;0.90;;;22.10;43.70;;;;;;4988834;28;20269;-43
2022/05/26 05:57:05;;;;;;;2.10;1.13;;;21.90;44.00;;;;;;4989407;28;21000;-43
2022/05/26 05:59:30;;;;;;;1.23;1.13;;;21.70;43.90;;;;;;4983417;28;20533;-43
2022/05/26 06:01:56;;;;;;;0.90;0.90;;;21.70;44.30;;;;;;4984577;28;20438;-43
2022/05/26 06:04:22;;;;;;;2.73;1.20;;;21.50;44.30;;;;;;4982189;28;20589;-44
2022/05/26 06:06:48;;;;;;;3.20;1.17;;;21.70;44.30;;;;;;4983346;28;20191;-44
2022/05/26 06:09:15;;;;;;;1.60;1.00;;;21.40;44.00;;;;;;4987267;28;20454;-43
2022/05/26 06:11:41;;;;;;;1.50;0.97;;;21.50;44.30;;;;;;4990334;28;20453;-43
2022/05/26 06:14:07;;;;;;;1.10;1.00;;;21.60;44.20;;;;;;4989701;28;21003;-46
2022/05/26 06:16:33;;;;;;;1.23;1.13;;;21.70;44.40;;;;;;4985300;28;20481;-43
2022/05/26 06:18:59;;;;;;;2.00;0.90;;;21.60;44.30;;;;;;4983627;28;20873;-44
2022/05/26 06:21:25;;;;;;;0.93;0.80;;;21.70;44.10;;;;;;4986465;28;20980;-43
2022/05/26 06:23:52;;;;;;;1.13;1.00;;;21.80;43.90;;;;;;4975795;28;20419;-44
2022/05/26 06:26:18;;;;;;;2.90;1.13;;;21.70;44.10;;;;;;4975157;28;20601;-43
2022/05/26 06:31:28;;;;;;;1.90;1.30;;;21.80;44.00;;;;;;4988637;28;20619;-45
2022/05/26 06:39:08;;;;;;;1.60;1.10;;;21.70;44.30;;;;;;4986044;28;20446;-45
2022/05/26 06:44:19;;;;;;;1.30;0.90;;;21.50;44.80;;;;;;4995706;28;20276;-45
2022/05/26 06:46:44;;;;;;;2.20;0.90;;;21.50;44.80;;;;;;4986118;28;20532;-47
2022/05/26 06:49:10;;;;;;;3.30;0.90;;;21.30;44.60;;;;;;4987861;28;20905;-48
2022/05/26 06:51:39;;;;;;;1.23;1.00;;;21.30;44.90;;;;;;4982235;28;20217;-46
2022/05/26 06:54:05;;;;;;;2.13;1.10;;;21.30;45.10;;;;;;4988839;28;20230;-44
2022/05/26 06:56:30;;;;;;;1.17;0.87;;;21.20;45.10;;;;;;4985362;28;20458;-48
2022/05/26 06:58:56;;;;;;;1.07;1.00;;;21.40;45.30;;;;;;4985963;28;20441;-45
2022/05/26 07:01:22;;;;;;;2.57;1.07;;;21.60;45.40;;;;;;4984605;28;20222;-46
2022/05/26 07:03:47;;;;;;;2.50;0.90;;;21.40;44.80;;;;;;4988789;28;20198;-45
2022/05/26 07:06:20;;;;;;;2.80;1.03;;;21.60;45.30;;;;;;4984576;28;20756;-44
2022/05/26 07:08:47;;;;;;;1.77;0.90;;;21.80;45.40;;;;;;4982203;28;20605;-45
2022/05/26 07:11:13;;;;;;;1.83;1.13;;;21.70;44.20;;;;;;4986883;28;20449;-44
2022/05/26 07:13:39;;;;;;;1.20;1.10;;;21.70;44.60;;;;;;4985908;28;20449;-45
2022/05/26 07:16:05;;;;;;;1.43;0.97;;;21.80;45.00;;;;;;4986419;28;20454;-44
2022/05/26 07:18:31;;;;;;;0.73;0.73;;;21.90;44.60;;;;;;4986112;28;20187;-44
2022/05/26 07:20:57;;;;;;;1.17;1.00;;;21.90;45.20;;;;;;4983640;28;21000;-43
2022/05/26 07:23:23;;;;;;;1.20;0.87;;;22.10;44.70;;;;;;4983155;28;21288;-46
2022/05/26 07:25:49;;;;;;;1.20;1.00;;;22.30;44.40;;;;;;4984840;28;20201;-45
2022/05/26 07:28:14;;;;;;;3.30;0.97;;;22.30;43.90;;;;;;4984228;28;20221;-44
2022/05/26 07:30:41;;;;;;;2.50;1.20;;;22.20;44.00;;;;;;4983550;28;20191;-45
2022/05/26 07:33:07;;;;;;;3.73;1.33;;;22.00;43.90;;;;;;4987074;28;21260;-44
2022/05/26 07:35:33;;;;;;;1.90;1.13;;;21.90;44.50;;;;;;4982416;28;20495;-43
2022/05/26 07:41:32;;;;;;;0.80;0.80;;;21.90;44.30;;;;;;4988349;28;20300;-44
2022/05/26 07:43:35;;;;;;;26.93;1.97;;;21.80;44.20;;;;;;4990331;28;20545;-46
2022/05/26 07:46:01;;;;;;;1.33;0.73;;;22.00;44.30;;;;;;4983858;28;20488;-44
2022/05/26 07:48:27;;;;;;;1.10;1.00;;;22.20;44.20;;;;;;4987808;28;20445;-47
2022/05/26 07:50:53;;;;;;;2.30;0.87;;;22.10;43.70;;;;;;4982862;28;20442;-45
2022/05/26 07:53:18;;;;;;;1.80;0.97;;;22.10;44.00;;;;;;4986405;28;20260;-44
2022/05/26 07:55:44;;;;;;;1.90;0.83;;;22.50;44.10;;;;;;4983246;28;20230;-45
2022/05/26 07:58:11;;;;;;;1.63;1.00;;;22.60;43.80;;;;;;4987138;28;20245;-44
2022/05/26 08:00:37;;;;;;;0.83;0.83;;;22.70;42.70;;;;;;4988639;28;20520;-44
2022/05/26 08:03:03;;;;;;;3.33;0.90;;;22.70;42.80;;;;;;4990966;28;20473;-44
2022/05/26 08:05:29;;;;;;;2.60;1.00;;;22.70;42.90;;;;;;4990906;28;20202;-46
2022/05/26 08:07:54;;;;;;;1.83;1.33;;;22.70;43.10;;;;;;4988102;28;20194;-44
2022/05/26 08:10:20;;;;;;;2.33;0.80;;;22.90;43.10;;;;;;4991490;28;20211;-44
2022/05/26 08:12:46;;;;;;;1.17;1.03;;;23.10;42.60;;;;;;4991919;28;20187;-44
2022/05/26 08:15:12;;;;;;;1.30;1.20;;;23.20;42.60;;;;;;4992908;28;20207;-47
2022/05/26 08:17:40;;;;;;;2.90;0.93;;;23.20;42.50;;;;;;4992847;28;21008;-45
2022/05/26 08:20:07;;;;;;;0.80;0.80;;;23.30;42.00;;;;;;5009221;28;20492;-45
2022/05/26 08:22:32;;;;;;;1.10;0.83;;;23.40;42.00;;;;;;4992965;28;20438;-45
2022/05/26 08:24:59;;;;;;;1.93;0.80;;;23.40;41.80;;;;;;4990923;28;20445;-44
2022/05/26 08:27:25;;;;;;;1.30;1.20;;;23.40;42.00;;;;;;4992614;28;20209;-46
2022/05/26 08:29:54;;;;;;;0.70;0.70;;;23.70;41.80;;;;;;4992863;28;20461;-44
2022/05/26 08:32:20;;;;;;;1.27;1.17;;;23.60;41.50;;;;;;4992071;28;20476;-43
2022/05/26 08:34:46;;;;;;;1.20;1.10;;;23.70;41.40;;;;;;4992759;28;20452;-43
2022/05/26 08:37:14;;;;;;;2.20;0.87;;;23.70;41.30;;;;;;4991135;28;20548;-44
2022/05/26 08:39:40;;;;;;;1.43;0.90;;;23.70;41.30;;;;;;4992300;28;20473;-44
2022/05/26 08:42:07;;;;;;;0.90;0.90;;;23.60;41.20;;;;;;4992165;28;20994;-44
2022/05/26 08:44:38;;;;;;;1.37;1.03;;;23.60;41.20;;;;;;4992588;28;20269;-47
2022/05/26 08:47:22;;;;;;;0.97;0.80;;;23.40;42.20;;;;;;4991158;28;20490;-43
2022/05/26 08:49:58;;;;;;;0.80;0.80;;;23.50;41.60;;;;;;4992423;28;20483;-45
2022/05/26 08:52:32;;;;;;;1.13;1.03;;;23.40;41.90;;;;;;4990515;28;20855;-45
2022/05/26 08:55:21;;;;;;;1.37;1.03;;;23.50;41.50;;;;;;4991863;28;20840;-46
2022/05/26 08:58:25;;;;;;;1.30;1.03;;;23.40;41.40;;;;;;4988419;28;20472;-48
2022/05/26 09:00:52;;;;;;;3.50;1.47;;;23.50;41.60;;;;;;4985445;28;20503;-45
2022/05/26 09:03:25;;;;;;;1.60;1.00;;;23.50;42.10;;;;;;4987904;28;20881;-43
2022/05/26 09:05:59;;;;;;;1.17;1.10;;;23.60;42.20;;;;;;4991540;28;20454;-45
2022/05/26 09:13:57;;;;;;;2.87;1.20;;;23.40;41.80;;;;;;4990727;28;20956;-46
2022/05/26 09:16:23;;;;;;;4.73;0.93;;;23.50;42.40;;;;;;4991262;28;20434;-47
2022/05/26 09:19:10;;;;;;;1.80;1.00;;;23.50;42.10;;;;;;4991208;28;20209;-46
2022/05/26 09:21:36;;;;;;;0.80;0.67;;;23.40;41.80;;;;;;4991850;28;20226;-44
2022/05/26 09:24:22;;;;;;;1.60;1.10;;;23.60;42.40;;;;;;4986242;28;20549;-44
2022/05/26 09:26:52;;;;;;;1.20;1.10;;;23.60;41.60;;;;;;4991671;28;20454;-44
2022/05/26 09:29:23;;;;;;;1.53;1.13;;;23.60;41.70;;;;;;4990041;28;20445;-44
2022/05/26 09:31:50;;;;;;;1.33;1.13;;;23.70;41.40;;;;;;4988467;28;20453;-45
2022/05/26 09:34:21;;;;;;;2.20;0.93;;;23.70;41.20;;;;;;4988118;28;21295;-44
2022/05/26 09:37:02;;;;;;;1.23;1.07;;;23.70;41.50;;;;;;4985995;28;21000;-44
2022/05/26 09:39:42;;;;;;;3.27;1.10;;;23.70;41.80;;;;;;4986538;28;20465;-45
2022/05/26 09:42:08;;;;;;;1.47;1.07;;;23.90;41.40;;;;;;4987449;28;20524;-44
2022/05/26 09:44:34;;;;;;;1.33;0.90;;;23.90;41.40;;;;;;4989996;28;20457;-44
2022/05/26 09:47:04;;;;;;;0.87;0.87;;;23.90;41.70;;;;;;4987978;28;20195;-44
2022/05/26 09:49:43;;;;;;;1.53;1.10;;;24.00;41.20;;;;;;4988313;28;20438;-44
2022/05/26 09:52:17;;;;;;;1.17;0.93;;;24.10;41.20;;;;;;5003468;28;22000;-44
2022/05/26 09:54:45;;;;;;;1.27;1.10;;;24.10;41.30;;;;;;4986499;28;20588;-44
2022/05/26 09:57:20;;;;;;;2.23;1.20;;;24.10;41.90;;;;;;4989223;28;20453;-45
2022/05/26 09:59:46;;;;;;;2.40;1.43;;;24.10;41.10;;;;;;4991129;28;20469;-44
2022/05/26 10:02:31;;;;;;;1.40;1.10;;;24.00;41.80;;;;;;4988120;28;20446;-44
2022/05/26 10:05:02;;;;;;;5.33;1.10;;;24.10;42.00;;;;;;4985315;28;20461;-45
2022/05/26 10:07:50;;;;;;;2.00;1.30;;;24.30;41.90;;;;;;4990784;28;20968;-43
2022/05/26 10:10:31;;;;;;;1.37;0.90;;;24.20;41.70;;;;;;4987843;28;20461;-44
2022/05/26 10:13:18;;;;;;;1.20;1.10;;;24.20;41.70;;;;;;4985991;28;20446;-44
2022/05/26 10:15:55;;;;;;;1.43;1.00;;;24.10;42.40;;;;;;4992444;28;20891;-45
2022/05/26 10:18:24;;;;;;;1.43;1.10;;;24.10;42.50;;;;;;4988503;28;20457;-44
2022/05/26 10:21:01;;;;;;;1.53;1.20;;;24.20;42.40;;;;;;4990783;28;20485;-43
2022/05/26 10:23:39;;;;;;;2.10;1.30;;;24.20;42.40;;;;;;4988668;28;20445;-44
2022/05/26 10:26:24;;;;;;;1.00;1.00;;;24.20;42.60;;;;;;4987735;28;20460;-45
2022/05/26 10:29:14;;;;;;;1.67;1.07;;;24.00;42.10;;;;;;4988969;28;20846;-44
2022/05/26 10:32:09;;;;;;;1.30;1.20;;;23.90;42.30;;;;;;4989633;28;20453;-44
2022/05/26 10:34:52;;;;;;;1.97;1.10;;;23.80;42.40;;;;;;4987826;28;20532;-45
2022/05/26 10:37:39;;;;;;;1.07;0.97;;;23.90;42.60;;;;;;4989530;28;20450;-44
2022/05/26 10:40:10;;;;;;;1.10;1.10;;;24.00;43.00;;;;;;4988854;28;20489;-46
2022/05/26 10:42:45;;;;;;;1.57;1.13;;;24.00;42.40;;;;;;4988380;28;20504;-43
2022/05/26 10:45:29;;;;;;;1.27;1.17;;;24.10;42.00;;;;;;4985466;28;20445;-44
2022/05/26 10:48:25;;;;;;;1.43;1.33;;;24.10;42.10;;;;;;4986091;28;20449;-45
2022/05/26 10:50:59;;;;;;;1.60;1.10;;;24.20;42.10;;;;;;4985948;28;20452;-44
2022/05/26 10:53:50;;;;;;;1.73;1.20;;;24.30;42.60;;;;;;4985100;28;20445;-44
2022/05/26 10:56:46;;;;;;;1.40;1.27;;;24.30;42.10;;;;;;4983029;28;20454;-44
2022/05/26 10:59:15;;;;;;;4.13;1.33;;;24.30;41.30;;;;;;4986060;28;20462;-44
2022/05/26 11:02:07;;;;;;;1.73;1.20;;;24.20;41.30;;;;;;4988360;28;20496;-45
2022/05/26 11:04:50;;;;;;;1.30;1.20;;;24.20;41.70;;;;;;4986850;28;20469;-44
2022/05/26 11:07:25;;;;;;;2.30;1.40;;;24.30;41.70;;;;;;4987725;28;20451;-43
2022/05/26 11:09:59;;;;;;;1.60;1.50;;;24.30;41.40;;;;;;4986802;28;20813;-44
2022/05/26 11:12:36;;;;;;;2.70;1.20;;;24.20;41.60;;;;;;4988909;28;20441;-45
2022/05/26 11:18:31;;;;;;;4.70;1.40;;;24.40;42.10;;;;;;4981009;28;21031;-44
2022/05/26 11:20:57;;;;;;;2.90;1.60;;;24.40;42.00;;;;;;4984695;28;20855;-44
2022/05/26 11:23:31;;;;;;;1.87;1.43;;;24.60;42.00;;;;;;4990114;28;20452;-44
2022/05/26 11:26:02;;;;;;;3.67;1.73;;;24.70;41.70;;;;;;4988906;28;20499;-45
2022/05/26 11:28:41;;;;;;;4.00;1.40;;;24.80;41.60;;;;;;4987508;28;20916;-45
2022/05/26 11:36:56;;;;;;;1.90;1.30;;;24.90;41.30;;;;;;4984942;28;20450;-47
2022/05/26 11:39:35;;;;;;;1.30;1.20;;;24.80;41.60;;;;;;4988719;28;20449;-44
2022/05/26 11:42:03;;;;;;;1.80;1.30;;;25.00;41.80;;;;;;4987068;28;20977;-44
2022/05/26 11:44:41;;;;;;;1.57;1.47;;;25.10;41.70;;;;;;4988286;28;20473;-44
2022/05/26 11:47:39;;;;;;;3.20;1.67;;;25.10;40.60;;;;;;4979557;28;20884;-44
2022/05/26 11:50:23;;;;;;;1.73;1.53;;;25.00;40.10;;;;;;4983898;28;20458;-45
2022/05/26 11:52:52;;;;;;;1.10;1.00;;;25.10;40.90;;;;;;4988621;28;20449;-46
2022/05/26 11:55:24;;;;;;;1.97;1.00;;;25.00;40.30;;;;;;4985479;28;20549;-45
2022/05/26 11:57:54;;;;;;;1.57;1.30;;;25.00;40.30;;;;;;4987372;28;20456;-45
2022/05/26 12:00:38;;;;;;;1.40;1.27;;;25.10;39.80;;;;;;4984625;28;20485;-46
2022/05/26 12:03:24;;;;;;;1.10;1.00;;;25.30;40.10;;;;;;4988571;28;20457;-44
2022/05/26 12:06:12;;;;;;;2.13;1.40;;;25.20;40.20;;;;;;4981900;28;20453;-44
2022/05/26 12:08:53;;;;;;;2.80;2.30;;;25.20;40.40;;;;;;4983248;28;20485;-45
2022/05/26 12:11:39;;;;;;;2.23;1.20;;;25.00;40.40;;;;;;4984737;28;20813;-44
2022/05/26 12:14:07;;;;;;;1.30;1.13;;;24.90;40.70;;;;;;4980757;28;20576;-44
2022/05/26 12:16:34;;;;;;;2.37;1.60;;;24.60;41.20;;;;;;4986126;28;20908;-45
2022/05/26 12:19:02;;;;;;;1.80;1.20;;;24.70;41.20;;;;;;4988562;28;20449;-44
2022/05/26 12:21:27;;;;;;;1.67;0.97;;;24.90;41.30;;;;;;4988041;28;20486;-46
2022/05/26 12:23:54;;;;;;;1.47;1.23;;;24.90;41.20;;;;;;4985129;28;20464;-44
2022/05/26 12:26:28;;;;;;;2.97;1.43;;;24.80;41.00;;;;;;4989980;28;20277;-44
2022/05/26 12:29:15;;;;;;;3.10;1.97;;;25.10;41.00;;;;;;4987594;28;20449;-44
2022/05/26 12:32:08;;;;;;;2.20;1.10;;;25.00;41.80;;;;;;4986506;28;20449;-46
2022/05/26 12:34:54;;;;;;;1.57;1.47;;;25.00;41.80;;;;;;4985221;28;20450;-47
2022/05/26 12:37:36;;;;;;;2.53;1.50;;;25.00;41.90;;;;;;4987848;28;20487;-45
2022/05/26 12:40:17;;;;;;;3.30;1.70;;;24.90;42.10;;;;;;4986489;28;21044;-45
2022/05/26 12:42:51;;;;;;;1.87;1.70;;;24.70;43.20;;;;;;4986733;28;20476;-44
2022/05/26 12:45:45;;;;;;;1.60;1.40;;;24.80;43.30;;;;;;4982929;28;20438;-45
2022/05/26 12:48:25;;;;;;;2.60;1.77;;;24.90;43.40;;;;;;4986863;28;20461;-44
2022/05/26 12:50:52;;;;;;;1.90;1.70;;;24.70;43.60;;;;;;4991359;28;20450;-44
2022/05/26 12:53:28;;;;;;;2.93;1.73;;;24.50;43.80;;;;;;4988332;28;20438;-44
2022/05/26 12:56:10;;;;;;;3.17;1.97;;;24.50;44.00;;;;;;4985079;28;20492;-44
2022/05/26 12:58:39;;;;;;;2.33;1.43;;;24.50;44.20;;;;;;4989467;28;20861;-44
2022/05/26 13:01:10;;;;;;;2.70;1.50;;;24.50;44.00;;;;;;4988464;28;20489;-44
2022/05/26 13:03:41;;;;;;;1.60;1.50;;;24.60;44.20;;;;;;4988783;28;20452;-44
2022/05/26 13:06:10;;;;;;;2.50;1.43;;;24.60;44.00;;;;;;4987628;28;20820;-45
2022/05/26 13:09:01;;;;;;;1.87;1.70;;;24.70;44.00;;;;;;4989733;28;20946;-44
2022/05/26 13:11:32;;;;;;;2.13;1.50;;;24.90;43.70;;;;;;4987109;28;20465;-44
2022/05/26 13:14:00;;;;;;;1.50;1.40;;;24.60;43.50;;;;;;4987327;28;20449;-45
2022/05/26 13:16:35;;;;;;;2.67;1.67;;;24.80;43.70;;;;;;4990000;28;20556;-45
2022/05/26 13:19:20;;;;;;;2.33;1.50;;;24.90;43.70;;;;;;4986412;28;20972;-45
2022/05/26 13:21:51;;;;;;;1.77;1.63;;;25.00;43.60;;;;;;4983757;28;20493;-44
2022/05/26 13:24:29;;;;;;;1.83;1.40;;;25.20;43.00;;;;;;4989687;28;20441;-44
2022/05/26 13:27:10;;;;;;;2.70;1.80;;;25.30;42.30;;;;;;4987902;28;20461;-44
2022/05/26 13:29:40;;;;;;;4.63;1.67;;;25.20;42.40;;;;;;4988337;28;20465;-44
2022/05/26 13:34:56;;;;;;;1.63;1.20;;;25.30;42.10;;;;;;4985076;28;20859;-44
2022/05/26 13:37:30;;;;;;;1.77;1.33;;;25.20;42.00;;;;;;4988201;28;20438;-45
2022/05/26 13:40:04;;;;;;;3.10;1.67;;;25.20;42.30;;;;;;4988913;28;20600;-45
2022/05/26 13:42:30;;;;;;;3.00;1.90;;;24.80;42.60;;;;;;4986244;28;20446;-44
2022/05/26 13:44:57;;;;;;;2.80;1.50;;;24.70;43.00;;;;;;4987532;28;20455;-44
2022/05/26 13:47:23;;;;;;;2.00;1.60;;;24.80;43.00;;;;;;4985179;28;20528;-47
2022/05/26 13:50:06;;;;;;;2.47;1.67;;;24.80;43.10;;;;;;4988038;28;20540;-44
2022/05/26 13:52:35;;;;;;;2.70;1.80;;;24.90;43.30;;;;;;4987789;28;20191;-45